sensor_id;sensor_type;location;lat;lon;timestamp;pressure;altitude;pressure_sealevel;temperature;humidity
818;BME280;391;51.052;6.954;2023-03-25T00:00:17;99804.09;;;10.11;79.88
818;BME280;391;51.052;6.954;2023-03-25T00:02:22;99808.00;;;10.40;79.21
818;BME280;391;51.052;6.954;2023-03-25T00:04:26;99809.66;;;10.34;78.65
818;BME280;391;51.052;6.954;2023-03-25T00:06:30;99797.50;;;10.33;78.04
818;BME280;391;51.052;6.954;2023-03-25T00:08:37;99815.56;;;10.22;77.73
818;BME280;391;51.052;6.954;2023-03-25T00:10:40;99803.50;;;10.27;77.33
818;BME280;391;51.052;6.954;2023-03-25T00:12:44;99805.22;;;10.28;77.11
818;BME280;391;51.052;6.954;2023-03-25T00:14:47;99800.34;;;10.49;76.86
818;BME280;391;51.052;6.954;2023-03-25T00:16:55;99800.47;;;10.58;75.66
818;BME280;391;51.052;6.954;2023-03-25T00:18:59;99794.97;;;10.40;75.79
818;BME280;391;51.052;6.954;2023-03-25T00:21:04;99795.63;;;10.26;76.13
818;BME280;391;51.052;6.954;2023-03-25T00:23:11;99790.38;;;10.23;76.28
818;BME280;391;51.052;6.954;2023-03-25T00:25:16;99793.16;;;10.33;76.34
818;BME280;391;51.052;6.954;2023-03-25T00:27:21;99798.97;;;10.16;76.17
818;BME280;391;51.052;6.954;2023-03-25T00:29:25;99798.25;;;10.24;76.34
818;BME280;391;51.052;6.954;2023-03-25T00:31:28;99798.28;;;10.29;76.54
818;BME280;391;51.052;6.954;2023-03-25T00:33:32;99787.13;;;10.37;75.59
818;BME280;391;51.052;6.954;2023-03-25T00:35:36;99798.56;;;10.48;75.50
818;BME280;391;51.052;6.954;2023-03-25T00:37:40;99783.63;;;10.34;75.48
818;BME280;391;51.052;6.954;2023-03-25T00:39:44;99769.69;;;10.32;75.47
818;BME280;391;51.052;6.954;2023-03-25T00:41:51;99790.75;;;10.48;75.63
818;BME280;391;51.052;6.954;2023-03-25T00:43:57;99789.69;;;10.34;75.13
818;BME280;391;51.052;6.954;2023-03-25T00:46:00;99790.56;;;10.35;75.52
818;BME280;391;51.052;6.954;2023-03-25T00:48:04;99787.16;;;10.39;74.72
818;BME280;391;51.052;6.954;2023-03-25T00:50:09;99784.78;;;10.57;74.65
818;BME280;391;51.052;6.954;2023-03-25T00:52:12;99790.75;;;10.50;73.81
818;BME280;391;51.052;6.954;2023-03-25T00:54:16;99799.69;;;10.67;74.28
818;BME280;391;51.052;6.954;2023-03-25T00:56:23;99790.06;;;10.61;73.18
818;BME280;391;51.052;6.954;2023-03-25T00:58:28;99797.44;;;10.31;73.67
818;BME280;391;51.052;6.954;2023-03-25T01:00:31;99793.91;;;10.26;74.17
818;BME280;391;51.052;6.954;2023-03-25T01:02:35;99791.78;;;10.02;74.85
818;BME280;391;51.052;6.954;2023-03-25T01:04:40;99749.59;;;9.71;73.99
818;BME280;391;51.052;6.954;2023-03-25T01:06:46;99787.50;;;10.06;74.10
818;BME280;391;51.052;6.954;2023-03-25T01:08:53;99794.38;;;10.02;73.73
818;BME280;391;51.052;6.954;2023-03-25T01:10:57;99788.63;;;10.22;73.53
818;BME280;391;51.052;6.954;2023-03-25T01:13:00;99769.59;;;10.24;72.86
818;BME280;391;51.052;6.954;2023-03-25T01:15:08;99782.31;;;10.09;72.70
818;BME280;391;51.052;6.954;2023-03-25T01:17:12;99777.91;;;10.03;73.57
818;BME280;391;51.052;6.954;2023-03-25T01:19:15;99774.56;;;10.12;73.18
818;BME280;391;51.052;6.954;2023-03-25T01:21:18;99778.13;;;10.16;73.10
818;BME280;391;51.052;6.954;2023-03-25T01:23:22;99783.38;;;10.17;73.27
818;BME280;391;51.052;6.954;2023-03-25T01:25:25;99788.75;;;10.29;72.32
818;BME280;391;51.052;6.954;2023-03-25T01:27:28;99778.25;;;10.25;72.30
818;BME280;391;51.052;6.954;2023-03-25T01:29:32;99785.31;;;10.30;72.64
818;BME280;391;51.052;6.954;2023-03-25T01:31:37;99785.38;;;10.36;71.75
818;BME280;391;51.052;6.954;2023-03-25T01:33:40;99780.09;;;10.30;72.13
818;BME280;391;51.052;6.954;2023-03-25T01:35:44;99781.97;;;10.43;72.04
818;BME280;391;51.052;6.954;2023-03-25T01:37:47;99786.16;;;10.31;72.30
818;BME280;391;51.052;6.954;2023-03-25T01:39:51;99782.44;;;10.15;73.48
818;BME280;391;51.052;6.954;2023-03-25T01:41:55;99780.47;;;10.02;73.98
818;BME280;391;51.052;6.954;2023-03-25T01:44:07;99787.56;;;10.10;73.99
818;BME280;391;51.052;6.954;2023-03-25T01:46:11;99782.22;;;10.01;74.51
818;BME280;391;51.052;6.954;2023-03-25T01:48:20;99770.97;;;10.04;74.18
818;BME280;391;51.052;6.954;2023-03-25T01:50:25;99765.97;;;10.15;74.07
818;BME280;391;51.052;6.954;2023-03-25T01:52:30;99768.66;;;10.21;73.75
818;BME280;391;51.052;6.954;2023-03-25T01:54:34;99707.22;;;9.76;73.95
818;BME280;391;51.052;6.954;2023-03-25T01:56:40;99761.47;;;10.07;74.27
818;BME280;391;51.052;6.954;2023-03-25T01:58:44;99757.44;;;10.26;73.79
818;BME280;391;51.052;6.954;2023-03-25T02:00:48;99762.81;;;10.37;73.60
818;BME280;391;51.052;6.954;2023-03-25T02:02:56;99746.06;;;10.21;73.20
818;BME280;391;51.052;6.954;2023-03-25T02:05:04;99753.16;;;10.30;72.93
818;BME280;391;51.052;6.954;2023-03-25T02:07:12;99761.09;;;10.39;72.93
818;BME280;391;51.052;6.954;2023-03-25T02:09:19;99757.03;;;10.02;73.59
818;BME280;391;51.052;6.954;2023-03-25T02:11:23;99762.28;;;10.03;73.98
818;BME280;391;51.052;6.954;2023-03-25T02:13:30;99742.28;;;10.02;73.54
818;BME280;391;51.052;6.954;2023-03-25T02:15:47;99753.00;;;10.18;73.67
818;BME280;391;51.052;6.954;2023-03-25T02:18:19;99748.63;;;10.17;73.16
818;BME280;391;51.052;6.954;2023-03-25T02:20:54;99750.47;;;10.25;72.92
818;BME280;391;51.052;6.954;2023-03-25T02:23:16;99745.13;;;10.15;73.31
818;BME280;391;51.052;6.954;2023-03-25T02:25:50;99752.75;;;10.04;74.36
818;BME280;391;51.052;6.954;2023-03-25T02:28:04;99715.09;;;9.82;75.07
818;BME280;391;51.052;6.954;2023-03-25T02:33:36;99759.81;;;10.13;75.96
818;BME280;391;51.052;6.954;2023-03-25T02:36:20;99754.56;;;10.08;76.87
818;BME280;391;51.052;6.954;2023-03-25T02:38:38;99764.72;;;9.91;78.13
818;BME280;391;51.052;6.954;2023-03-25T02:40:47;99752.56;;;9.93;78.40
818;BME280;391;51.052;6.954;2023-03-25T02:43:00;99758.56;;;9.89;78.48
818;BME280;391;51.052;6.954;2023-03-25T02:45:11;99749.19;;;9.99;78.68
818;BME280;391;51.052;6.954;2023-03-25T02:47:21;99754.81;;;9.71;79.06
818;BME280;391;51.052;6.954;2023-03-25T02:49:29;99750.34;;;9.64;79.59
818;BME280;391;51.052;6.954;2023-03-25T02:51:37;99755.28;;;9.47;80.03
818;BME280;391;51.052;6.954;2023-03-25T02:53:46;99753.59;;;9.49;79.53
818;BME280;391;51.052;6.954;2023-03-25T02:55:56;99754.72;;;9.63;79.92
818;BME280;391;51.052;6.954;2023-03-25T02:58:04;99765.03;;;9.58;79.27
818;BME280;391;51.052;6.954;2023-03-25T03:00:12;99753.69;;;9.55;78.97
818;BME280;391;51.052;6.954;2023-03-25T03:02:17;99722.31;;;9.44;79.07
818;BME280;391;51.052;6.954;2023-03-25T03:04:23;99753.72;;;9.58;79.21
818;BME280;391;51.052;6.954;2023-03-25T03:06:27;99728.41;;;9.46;79.28
818;BME280;391;51.052;6.954;2023-03-25T03:11:22;99744.94;;;9.51;79.95
818;BME280;391;51.052;6.954;2023-03-25T03:13:35;99738.84;;;9.49;79.80
818;BME280;391;51.052;6.954;2023-03-25T03:15:48;99743.09;;;9.43;80.42
818;BME280;391;51.052;6.954;2023-03-25T03:18:04;99739.69;;;9.48;79.91
818;BME280;391;51.052;6.954;2023-03-25T03:20:16;99747.75;;;9.64;79.70
818;BME280;391;51.052;6.954;2023-03-25T03:22:35;99741.88;;;9.75;79.17
818;BME280;391;51.052;6.954;2023-03-25T03:24:45;99721.28;;;9.36;79.79
818;BME280;391;51.052;6.954;2023-03-25T03:26:54;99746.66;;;9.49;80.32
818;BME280;391;51.052;6.954;2023-03-25T03:29:06;99752.00;;;9.57;78.99
818;BME280;391;51.052;6.954;2023-03-25T03:31:16;99742.72;;;9.73;79.28
818;BME280;391;51.052;6.954;2023-03-25T03:33:47;99741.81;;;9.71;78.78
818;BME280;391;51.052;6.954;2023-03-25T03:35:55;99743.47;;;9.66;78.46
818;BME280;391;51.052;6.954;2023-03-25T03:38:06;99747.69;;;9.61;78.99
818;BME280;391;51.052;6.954;2023-03-25T03:40:15;99711.81;;;9.41;79.16
818;BME280;391;51.052;6.954;2023-03-25T03:42:24;99742.69;;;9.71;78.43
818;BME280;391;51.052;6.954;2023-03-25T03:44:33;99753.28;;;9.83;77.89
818;BME280;391;51.052;6.954;2023-03-25T03:46:42;99752.22;;;9.71;78.46
818;BME280;391;51.052;6.954;2023-03-25T03:48:52;99745.22;;;9.67;78.51
818;BME280;391;51.052;6.954;2023-03-25T03:51:00;99750.66;;;9.82;77.92
818;BME280;391;51.052;6.954;2023-03-25T03:53:08;99752.13;;;9.65;78.28
818;BME280;391;51.052;6.954;2023-03-25T03:55:18;99755.47;;;9.57;78.72
818;BME280;391;51.052;6.954;2023-03-25T03:57:26;99743.28;;;9.53;78.36
818;BME280;391;51.052;6.954;2023-03-25T03:59:37;99753.53;;;9.44;78.49
818;BME280;391;51.052;6.954;2023-03-25T04:01:45;99756.19;;;9.47;78.63
818;BME280;391;51.052;6.954;2023-03-25T04:03:51;99756.28;;;9.53;77.94
818;BME280;391;51.052;6.954;2023-03-25T04:05:59;99716.22;;;9.44;77.90
818;BME280;391;51.052;6.954;2023-03-25T04:08:13;99741.47;;;9.49;77.80
818;BME280;391;51.052;6.954;2023-03-25T04:10:27;99750.97;;;9.47;78.45
818;BME280;391;51.052;6.954;2023-03-25T04:12:40;99758.16;;;9.64;77.82
818;BME280;391;51.052;6.954;2023-03-25T04:14:45;99756.03;;;9.40;78.43
818;BME280;391;51.052;6.954;2023-03-25T04:16:49;99756.09;;;9.43;78.19
818;BME280;391;51.052;6.954;2023-03-25T04:18:54;99757.75;;;9.38;78.66
818;BME280;391;51.052;6.954;2023-03-25T04:20:59;99755.41;;;9.53;78.26
818;BME280;391;51.052;6.954;2023-03-25T04:23:03;99753.69;;;9.55;78.35
818;BME280;391;51.052;6.954;2023-03-25T04:25:07;99757.31;;;9.63;77.15
818;BME280;391;51.052;6.954;2023-03-25T04:27:10;99757.28;;;9.62;77.15
818;BME280;391;51.052;6.954;2023-03-25T04:29:16;99756.25;;;9.52;77.73
818;BME280;391;51.052;6.954;2023-03-25T04:31:20;99756.38;;;9.60;76.85
818;BME280;391;51.052;6.954;2023-03-25T04:33:23;99754.56;;;9.55;76.51
818;BME280;391;51.052;6.954;2023-03-25T04:35:27;99761.22;;;9.40;77.39
818;BME280;391;51.052;6.954;2023-03-25T04:37:34;99761.63;;;9.63;76.38
818;BME280;391;51.052;6.954;2023-03-25T04:39:38;99757.22;;;9.58;76.28
818;BME280;391;51.052;6.954;2023-03-25T04:41:41;99760.66;;;9.57;76.09
818;BME280;391;51.052;6.954;2023-03-25T04:43:45;99752.81;;;9.54;75.69
818;BME280;391;51.052;6.954;2023-03-25T04:45:49;99764.16;;;9.58;75.81
818;BME280;391;51.052;6.954;2023-03-25T04:47:56;99768.53;;;9.61;75.62
818;BME280;391;51.052;6.954;2023-03-25T04:49:59;99763.94;;;9.46;75.93
818;BME280;391;51.052;6.954;2023-03-25T04:52:03;99754.16;;;9.31;75.86
818;BME280;391;51.052;6.954;2023-03-25T04:54:08;99771.53;;;9.35;76.13
818;BME280;391;51.052;6.954;2023-03-25T04:56:13;99766.34;;;9.35;75.69
818;BME280;391;51.052;6.954;2023-03-25T04:58:18;99753.28;;;9.31;75.77
818;BME280;391;51.052;6.954;2023-03-25T05:00:23;99756.81;;;9.36;76.24
818;BME280;391;51.052;6.954;2023-03-25T05:02:28;99751.44;;;9.25;75.98
818;BME280;391;51.052;6.954;2023-03-25T05:04:32;99735.06;;;9.31;75.65
818;BME280;391;51.052;6.954;2023-03-25T05:06:38;99751.63;;;9.36;75.67
818;BME280;391;51.052;6.954;2023-03-25T05:08:41;99749.00;;;9.34;75.79
818;BME280;391;51.052;6.954;2023-03-25T05:10:45;99745.56;;;9.37;75.53
818;BME280;391;51.052;6.954;2023-03-25T05:12:49;99751.59;;;9.34;75.85
818;BME280;391;51.052;6.954;2023-03-25T05:14:52;99766.34;;;9.35;75.37
818;BME280;391;51.052;6.954;2023-03-25T05:16:55;99748.13;;;9.35;75.57
818;BME280;391;51.052;6.954;2023-03-25T05:19:02;99751.66;;;9.37;74.95
818;BME280;391;51.052;6.954;2023-03-25T05:21:07;99750.06;;;9.45;74.82
818;BME280;391;51.052;6.954;2023-03-25T05:23:13;99757.84;;;9.45;74.29
818;BME280;391;51.052;6.954;2023-03-25T05:25:18;99750.00;;;9.42;74.48
818;BME280;391;51.052;6.954;2023-03-25T05:27:23;99743.75;;;9.31;74.72
818;BME280;391;51.052;6.954;2023-03-25T05:29:26;99723.53;;;9.17;74.35
818;BME280;391;51.052;6.954;2023-03-25T05:31:35;99752.44;;;9.33;74.45
818;BME280;391;51.052;6.954;2023-03-25T05:33:38;99757.94;;;9.50;74.03
818;BME280;391;51.052;6.954;2023-03-25T05:35:45;99766.94;;;9.69;73.36
818;BME280;391;51.052;6.954;2023-03-25T05:37:48;99764.28;;;9.66;73.49
818;BME280;391;51.052;6.954;2023-03-25T05:39:52;99765.97;;;9.64;73.33
818;BME280;391;51.052;6.954;2023-03-25T05:41:55;99771.22;;;9.65;73.62
818;BME280;391;51.052;6.954;2023-03-25T05:44:04;99765.72;;;9.48;73.59
818;BME280;391;51.052;6.954;2023-03-25T05:46:08;99784.81;;;9.49;74.24
818;BME280;391;51.052;6.954;2023-03-25T05:48:11;99755.34;;;9.50;74.31
818;BME280;391;51.052;6.954;2023-03-25T05:50:14;99770.28;;;9.62;73.84
818;BME280;391;51.052;6.954;2023-03-25T05:52:19;99766.78;;;9.60;73.95
818;BME280;391;51.052;6.954;2023-03-25T05:54:25;99764.09;;;9.53;74.33
818;BME280;391;51.052;6.954;2023-03-25T05:56:29;99766.78;;;9.60;74.16
818;BME280;391;51.052;6.954;2023-03-25T05:58:32;99765.81;;;9.53;73.64
818;BME280;391;51.052;6.954;2023-03-25T06:00:37;99772.94;;;9.65;73.49
818;BME280;391;51.052;6.954;2023-03-25T06:02:41;99762.75;;;9.78;73.35
818;BME280;391;51.052;6.954;2023-03-25T06:04:47;99768.69;;;9.70;73.21
818;BME280;391;51.052;6.954;2023-03-25T06:06:51;99772.97;;;9.68;73.38
818;BME280;391;51.052;6.954;2023-03-25T06:08:56;99768.81;;;9.77;72.76
818;BME280;391;51.052;6.954;2023-03-25T06:10:59;99764.28;;;9.66;73.18
818;BME280;391;51.052;6.954;2023-03-25T06:13:03;99751.47;;;9.76;73.66
818;BME280;391;51.052;6.954;2023-03-25T06:15:08;99735.56;;;9.61;72.71
818;BME280;391;51.052;6.954;2023-03-25T06:17:11;99769.59;;;9.72;73.70
818;BME280;391;51.052;6.954;2023-03-25T06:19:15;99783.72;;;9.86;74.21
818;BME280;391;51.052;6.954;2023-03-25T06:21:19;99771.25;;;9.67;75.70
818;BME280;391;51.052;6.954;2023-03-25T06:23:24;99778.22;;;9.71;76.35
818;BME280;391;51.052;6.954;2023-03-25T06:25:30;99772.53;;;9.40;79.38
818;BME280;391;51.052;6.954;2023-03-25T06:27:34;99771.38;;;9.26;81.21
818;BME280;391;51.052;6.954;2023-03-25T06:29:43;99753.91;;;9.19;81.76
818;BME280;391;51.052;6.954;2023-03-25T06:31:48;99702.88;;;9.26;81.18
818;BME280;391;51.052;6.954;2023-03-25T06:33:52;99677.25;;;8.97;81.88
818;BME280;391;51.052;6.954;2023-03-25T06:35:55;99766.53;;;9.44;82.18
818;BME280;391;51.052;6.954;2023-03-25T06:37:59;99735.91;;;9.28;82.75
818;BME280;391;51.052;6.954;2023-03-25T06:40:11;99734.88;;;9.20;83.20
818;BME280;391;51.052;6.954;2023-03-25T06:42:16;99767.06;;;9.27;83.90
818;BME280;391;51.052;6.954;2023-03-25T06:44:33;99763.59;;;9.26;83.85
818;BME280;391;51.052;6.954;2023-03-25T06:46:54;99784.44;;;9.28;83.15
818;BME280;391;51.052;6.954;2023-03-25T06:49:03;99762.81;;;9.30;82.59
818;BME280;391;51.052;6.954;2023-03-25T06:51:07;99767.66;;;9.12;82.02
818;BME280;391;51.052;6.954;2023-03-25T06:53:10;99765.88;;;9.10;81.83
818;BME280;391;51.052;6.954;2023-03-25T06:55:14;99769.56;;;9.22;81.48
818;BME280;391;51.052;6.954;2023-03-25T06:57:19;99784.53;;;9.34;81.86
818;BME280;391;51.052;6.954;2023-03-25T06:59:23;99769.63;;;9.24;80.56
818;BME280;391;51.052;6.954;2023-03-25T07:01:27;99743.13;;;8.98;80.45
818;BME280;391;51.052;6.954;2023-03-25T07:03:30;99771.28;;;9.20;80.09
818;BME280;391;51.052;6.954;2023-03-25T07:05:34;99793.13;;;9.30;79.15
818;BME280;391;51.052;6.954;2023-03-25T07:07:38;99780.22;;;9.34;79.43
818;BME280;391;51.052;6.954;2023-03-25T07:09:41;99789.75;;;9.35;79.10
818;BME280;391;51.052;6.954;2023-03-25T07:11:44;99789.13;;;9.48;79.50
818;BME280;391;51.052;6.954;2023-03-25T07:13:49;99783.75;;;9.39;79.84
818;BME280;391;51.052;6.954;2023-03-25T07:15:54;99780.47;;;9.49;79.85
818;BME280;391;51.052;6.954;2023-03-25T07:17:58;99800.31;;;9.43;79.34
818;BME280;391;51.052;6.954;2023-03-25T07:20:02;99790.84;;;9.46;79.90
818;BME280;391;51.052;6.954;2023-03-25T07:22:06;99793.69;;;9.62;78.47
818;BME280;391;51.052;6.954;2023-03-25T07:24:09;99791.66;;;9.44;78.24
818;BME280;391;51.052;6.954;2023-03-25T07:26:12;99809.78;;;9.39;78.98
818;BME280;391;51.052;6.954;2023-03-25T07:28:16;99810.78;;;9.46;78.99
818;BME280;391;51.052;6.954;2023-03-25T07:30:22;99799.69;;;9.56;79.01
818;BME280;391;51.052;6.954;2023-03-25T07:32:26;99798.69;;;9.49;79.57
818;BME280;391;51.052;6.954;2023-03-25T07:34:29;99773.16;;;9.29;79.68
818;BME280;391;51.052;6.954;2023-03-25T07:36:33;99781.63;;;9.17;80.33
818;BME280;391;51.052;6.954;2023-03-25T07:38:36;99806.41;;;9.43;80.30
818;BME280;391;51.052;6.954;2023-03-25T07:40:40;99809.47;;;9.69;79.50
818;BME280;391;51.052;6.954;2023-03-25T07:42:43;99807.19;;;9.89;79.46
818;BME280;391;51.052;6.954;2023-03-25T07:45:10;99816.38;;;9.69;79.56
818;BME280;391;51.052;6.954;2023-03-25T07:47:17;99811.66;;;9.46;80.72
818;BME280;391;51.052;6.954;2023-03-25T07:49:21;99752.28;;;9.24;79.77
818;BME280;391;51.052;6.954;2023-03-25T07:51:24;99803.91;;;9.51;79.54
818;BME280;391;51.052;6.954;2023-03-25T07:53:28;99813.56;;;9.56;79.29
818;BME280;391;51.052;6.954;2023-03-25T07:55:31;99806.75;;;9.65;79.50
818;BME280;391;51.052;6.954;2023-03-25T07:57:34;99813.69;;;9.63;79.85
818;BME280;391;51.052;6.954;2023-03-25T07:59:38;99814.41;;;9.55;79.18
818;BME280;391;51.052;6.954;2023-03-25T08:01:41;99829.34;;;9.66;78.92
818;BME280;391;51.052;6.954;2023-03-25T08:03:46;99799.38;;;9.38;79.62
818;BME280;391;51.052;6.954;2023-03-25T08:05:51;99811.75;;;9.52;79.04
818;BME280;391;51.052;6.954;2023-03-25T08:07:54;99830.13;;;9.60;78.93
818;BME280;391;51.052;6.954;2023-03-25T08:10:01;99827.47;;;9.58;79.01
818;BME280;391;51.052;6.954;2023-03-25T08:12:05;99831.25;;;9.76;78.86
818;BME280;391;51.052;6.954;2023-03-25T08:14:10;99830.28;;;9.69;78.49
818;BME280;391;51.052;6.954;2023-03-25T08:16:13;99829.94;;;10.00;77.63
818;BME280;391;51.052;6.954;2023-03-25T08:18:17;99839.00;;;10.21;79.64
818;BME280;391;51.052;6.954;2023-03-25T08:20:22;99840.84;;;10.31;77.41
818;BME280;391;51.052;6.954;2023-03-25T08:22:26;99844.53;;;10.43;76.23
818;BME280;391;51.052;6.954;2023-03-25T08:24:29;99854.53;;;10.15;76.17
818;BME280;391;51.052;6.954;2023-03-25T08:26:34;99857.84;;;10.09;75.64
818;BME280;391;51.052;6.954;2023-03-25T08:28:37;99846.75;;;10.19;75.49
818;BME280;391;51.052;6.954;2023-03-25T08:30:41;99853.91;;;10.32;74.53
818;BME280;391;51.052;6.954;2023-03-25T08:32:44;99859.75;;;10.16;75.44
818;BME280;391;51.052;6.954;2023-03-25T08:34:55;99820.50;;;10.07;74.54
818;BME280;391;51.052;6.954;2023-03-25T08:37:00;99847.88;;;10.33;74.32
818;BME280;391;51.052;6.954;2023-03-25T08:39:04;99854.75;;;10.31;74.55
818;BME280;391;51.052;6.954;2023-03-25T08:41:10;99867.38;;;10.08;74.80
818;BME280;391;51.052;6.954;2023-03-25T08:43:13;99854.44;;;10.13;75.22
818;BME280;391;51.052;6.954;2023-03-25T08:45:17;99863.06;;;10.09;75.04
818;BME280;391;51.052;6.954;2023-03-25T08:47:21;99870.75;;;10.01;75.35
818;BME280;391;51.052;6.954;2023-03-25T08:49:25;99843.78;;;9.98;75.30
818;BME280;391;51.052;6.954;2023-03-25T08:51:28;99873.13;;;9.88;74.58
818;BME280;391;51.052;6.954;2023-03-25T08:53:33;99866.13;;;9.85;75.00
818;BME280;391;51.052;6.954;2023-03-25T08:55:36;99860.00;;;9.82;74.99
818;BME280;391;51.052;6.954;2023-03-25T08:57:39;99859.13;;;9.83;75.09
818;BME280;391;51.052;6.954;2023-03-25T08:59:43;99870.56;;;9.91;75.16
818;BME280;391;51.052;6.954;2023-03-25T09:01:46;99872.63;;;10.10;74.59
818;BME280;391;51.052;6.954;2023-03-25T09:03:50;99864.72;;;10.04;74.37
818;BME280;391;51.052;6.954;2023-03-25T09:05:53;99861.59;;;10.25;74.21
818;BME280;391;51.052;6.954;2023-03-25T09:07:57;99852.06;;;10.24;73.09
818;BME280;391;51.052;6.954;2023-03-25T09:10:02;99864.06;;;10.14;72.80
818;BME280;391;51.052;6.954;2023-03-25T09:12:06;99861.38;;;10.13;72.57
818;BME280;391;51.052;6.954;2023-03-25T09:14:09;99852.88;;;10.21;72.89
818;BME280;391;51.052;6.954;2023-03-25T09:16:13;99827.66;;;10.19;72.28
818;BME280;391;51.052;6.954;2023-03-25T09:18:16;99852.16;;;10.31;72.46
818;BME280;391;51.052;6.954;2023-03-25T09:20:20;99853.16;;;10.39;71.63
818;BME280;391;51.052;6.954;2023-03-25T09:22:23;99855.03;;;10.48;70.97
818;BME280;391;51.052;6.954;2023-03-25T09:24:27;99872.47;;;10.53;70.97
818;BME280;391;51.052;6.954;2023-03-25T09:26:31;99858.94;;;10.79;70.37
818;BME280;391;51.052;6.954;2023-03-25T09:28:35;99863.94;;;10.63;69.85
818;BME280;391;51.052;6.954;2023-03-25T09:30:39;99869.28;;;10.73;69.40
818;BME280;391;51.052;6.954;2023-03-25T09:32:42;99861.53;;;10.77;69.07
818;BME280;391;51.052;6.954;2023-03-25T09:34:46;99866.63;;;10.68;68.22
818;BME280;391;51.052;6.954;2023-03-25T09:36:50;99865.88;;;10.75;69.00
818;BME280;391;51.052;6.954;2023-03-25T09:38:59;99863.38;;;10.86;68.39
818;BME280;391;51.052;6.954;2023-03-25T09:41:11;99858.94;;;10.79;68.25
818;BME280;391;51.052;6.954;2023-03-25T09:43:30;99874.00;;;10.99;67.83
818;BME280;391;51.052;6.954;2023-03-25T09:45:41;99871.66;;;11.21;66.97
818;BME280;391;51.052;6.954;2023-03-25T09:47:54;99833.91;;;10.91;65.78
818;BME280;391;51.052;6.954;2023-03-25T09:50:02;99867.13;;;11.07;66.83
818;BME280;391;51.052;6.954;2023-03-25T09:52:12;99860.25;;;11.12;66.85
818;BME280;391;51.052;6.954;2023-03-25T09:54:22;99865.66;;;11.26;66.43
818;BME280;391;51.052;6.954;2023-03-25T09:56:30;99885.66;;;11.26;66.11
818;BME280;391;51.052;6.954;2023-03-25T09:58:42;99840.00;;;10.90;65.82
818;BME280;391;51.052;6.954;2023-03-25T10:00:47;99842.53;;;10.86;65.39
818;BME280;391;51.052;6.954;2023-03-25T10:02:59;99878.41;;;11.05;66.21
818;BME280;391;51.052;6.954;2023-03-25T10:05:36;99864.34;;;10.92;66.09
818;BME280;391;51.052;6.954;2023-03-25T10:07:51;99872.97;;;10.87;66.38
818;BME280;391;51.052;6.954;2023-03-25T10:10:03;99874.78;;;10.91;65.99
818;BME280;391;51.052;6.954;2023-03-25T10:12:23;99866.31;;;11.10;66.20
818;BME280;391;51.052;6.954;2023-03-25T10:14:38;99888.16;;;11.17;66.16
818;BME280;391;51.052;6.954;2023-03-25T10:16:55;99874.06;;;11.05;66.32
818;BME280;391;51.052;6.954;2023-03-25T10:19:14;99862.81;;;11.08;67.16
818;BME280;391;51.052;6.954;2023-03-25T10:21:23;99873.38;;;11.19;66.51
818;BME280;391;51.052;6.954;2023-03-25T10:23:33;99868.16;;;11.20;66.36
818;BME280;391;51.052;6.954;2023-03-25T10:25:40;99874.94;;;11.04;66.58
818;BME280;391;51.052;6.954;2023-03-25T10:27:49;99883.56;;;10.99;67.06
818;BME280;391;51.052;6.954;2023-03-25T10:29:58;99888.72;;;10.94;68.98
818;BME280;391;51.052;6.954;2023-03-25T10:32:06;99893.16;;;11.00;69.97
818;BME280;391;51.052;6.954;2023-03-25T10:34:17;99911.41;;;11.00;69.08
818;BME280;391;51.052;6.954;2023-03-25T10:36:34;99876.34;;;10.78;68.81
818;BME280;391;51.052;6.954;2023-03-25T10:38:40;99913.19;;;11.04;68.38
818;BME280;391;51.052;6.954;2023-03-25T10:40:46;99895.66;;;10.94;67.50
818;BME280;391;51.052;6.954;2023-03-25T10:43:03;99900.75;;;10.85;67.26
818;BME280;391;51.052;6.954;2023-03-25T10:45:11;99904.31;;;10.90;67.50
818;BME280;391;51.052;6.954;2023-03-25T10:47:21;99879.94;;;10.89;67.75
818;BME280;391;51.052;6.954;2023-03-25T10:49:29;99877.47;;;10.98;67.77
818;BME280;391;51.052;6.954;2023-03-25T10:51:34;99889.56;;;10.93;67.10
818;BME280;391;51.052;6.954;2023-03-25T10:53:39;99901.84;;;11.00;66.98
818;BME280;391;51.052;6.954;2023-03-25T10:55:43;99862.72;;;11.00;67.37
818;BME280;391;51.052;6.954;2023-03-25T10:57:47;99884.66;;;11.16;66.12
818;BME280;391;51.052;6.954;2023-03-25T11:00:00;99900.25;;;11.10;65.70
818;BME280;391;51.052;6.954;2023-03-25T11:02:14;99893.16;;;11.00;65.86
818;BME280;391;51.052;6.954;2023-03-25T11:04:23;99900.28;;;11.14;65.37
818;BME280;391;51.052;6.954;2023-03-25T11:06:33;99878.41;;;11.05;65.31
818;BME280;391;51.052;6.954;2023-03-25T11:08:55;99881.16;;;11.15;64.52
818;BME280;391;51.052;6.954;2023-03-25T11:10:58;99894.41;;;11.29;64.40
818;BME280;391;51.052;6.954;2023-03-25T11:13:11;99898.88;;;11.42;64.44
818;BME280;391;51.052;6.954;2023-03-25T11:15:20;99891.25;;;11.57;64.30
818;BME280;391;51.052;6.954;2023-03-25T11:17:25;99895.78;;;11.71;64.06
818;BME280;391;51.052;6.954;2023-03-25T11:19:32;99911.69;;;11.93;63.55
818;BME280;391;51.052;6.954;2023-03-25T11:21:45;99892.47;;;11.88;63.80
818;BME280;391;51.052;6.954;2023-03-25T11:23:50;99885.38;;;11.77;64.38
818;BME280;391;51.052;6.954;2023-03-25T11:25:54;99914.19;;;11.83;64.68
818;BME280;391;51.052;6.954;2023-03-25T11:28:08;99899.28;;;11.73;63.97
818;BME280;391;51.052;6.954;2023-03-25T11:30:15;99906.16;;;11.67;64.93
818;BME280;391;51.052;6.954;2023-03-25T11:32:23;99908.66;;;11.61;65.93
818;BME280;391;51.052;6.954;2023-03-25T11:34:28;99888.59;;;11.54;66.88
818;BME280;391;51.052;6.954;2023-03-25T11:36:35;99895.47;;;11.49;66.70
818;BME280;391;51.052;6.954;2023-03-25T11:38:40;99902.53;;;11.55;67.08
818;BME280;391;51.052;6.954;2023-03-25T11:40:50;99911.56;;;11.83;66.64
818;BME280;391;51.052;6.954;2023-03-25T11:42:57;99904.34;;;11.63;65.20
818;BME280;391;51.052;6.954;2023-03-25T11:45:01;99905.94;;;11.49;66.23
818;BME280;391;51.052;6.954;2023-03-25T11:47:07;99909.47;;;11.54;66.10
818;BME280;391;51.052;6.954;2023-03-25T11:49:16;99896.44;;;11.54;66.38
818;BME280;391;51.052;6.954;2023-03-25T11:51:24;99898.97;;;11.50;66.77
818;BME280;391;51.052;6.954;2023-03-25T11:53:31;99898.94;;;11.45;68.35
818;BME280;391;51.052;6.954;2023-03-25T11:55:40;99893.75;;;11.48;69.52
818;BME280;391;51.052;6.954;2023-03-25T11:57:47;99897.25;;;11.52;70.70
818;BME280;391;51.052;6.954;2023-03-25T12:00:00;99862.28;;;11.35;70.17